Time;durP1;ratioP1;P1;durP2;ratioP2;P2;SDS_P1;SDS_P2;PMS_P1;PMS_P2;Temp;Humidity;BMP_temperature;BMP_pressure;BME280_temperature;BME280_humidity;BME280_pressure;Samples;Min_cycle;Max_cycle;Signal;HPM_P1;HPM_P2
2022/05/02 00:00:53;;;;;;;4.33;3.67;;;7.60;99.90;;;;;;5113584;28;20407;-64
2022/05/02 00:03:19;;;;;;;4.17;3.83;;;7.70;99.90;;;;;;5114052;28;20416;-65
2022/05/02 00:05:45;;;;;;;4.07;3.77;;;7.70;99.90;;;;;;5113706;28;20482;-65
2022/05/02 00:08:10;;;;;;;4.80;4.50;;;7.70;99.90;;;;;;5113720;28;20302;-63
2022/05/02 00:10:36;;;;;;;4.20;3.60;;;7.70;99.90;;;;;;5112385;28;20191;-66
2022/05/02 00:13:03;;;;;;;7.67;3.90;;;7.60;99.90;;;;;;5113835;28;20648;-61
2022/05/02 00:15:29;;;;;;;4.03;3.67;;;7.70;99.90;;;;;;5113967;28;20918;-65
2022/05/02 00:17:58;;;;;;;5.70;4.43;;;7.70;99.90;;;;;;5114029;28;20411;-63
2022/05/02 00:20:28;;;;;;;3.90;3.60;;;7.50;99.90;;;;;;5112986;28;20426;-62
2022/05/02 00:22:54;;;;;;;5.73;3.43;;;7.30;99.90;;;;;;5113586;28;20418;-64
2022/05/02 00:25:20;;;;;;;4.33;3.20;;;7.20;99.90;;;;;;5113015;28;20547;-65
2022/05/02 00:27:46;;;;;;;7.63;4.40;;;7.20;99.90;;;;;;5113948;28;20391;-60
2022/05/02 00:30:12;;;;;;;4.33;4.00;;;7.20;99.90;;;;;;5112912;28;20781;-61
2022/05/02 00:32:39;;;;;;;5.87;4.30;;;7.30;99.90;;;;;;5113698;28;20410;-61
2022/05/02 00:35:06;;;;;;;7.90;4.53;;;7.40;99.90;;;;;;5113808;28;20402;-61
2022/05/02 00:37:31;;;;;;;4.03;3.67;;;7.40;99.90;;;;;;5113735;28;20919;-61
2022/05/02 00:39:57;;;;;;;5.13;3.63;;;7.40;99.90;;;;;;5112836;28;20406;-60
2022/05/02 00:42:23;;;;;;;4.70;4.40;;;7.40;99.90;;;;;;5113415;28;20200;-64
2022/05/02 00:44:49;;;;;;;4.23;3.93;;;7.40;99.90;;;;;;5113070;28;20240;-61
2022/05/02 00:47:15;;;;;;;3.53;3.33;;;7.40;99.90;;;;;;5113566;28;20502;-65
2022/05/02 00:49:41;;;;;;;4.70;4.20;;;7.40;99.90;;;;;;5112814;28;20248;-65
2022/05/02 00:52:07;;;;;;;5.60;3.30;;;7.40;99.90;;;;;;5113523;28;20477;-64
2022/05/02 00:54:35;;;;;;;3.93;3.63;;;7.40;99.90;;;;;;5113569;28;20383;-64
2022/05/02 00:57:02;;;;;;;3.43;3.23;;;7.40;99.90;;;;;;5095205;28;20415;-65
2022/05/02 00:59:28;;;;;;;4.00;2.87;;;7.50;99.90;;;;;;5112281;28;20568;-61
2022/05/02 01:01:54;;;;;;;4.00;3.70;;;7.50;99.90;;;;;;5113585;28;20779;-64
2022/05/02 01:04:19;;;;;;;3.43;3.13;;;7.40;99.90;;;;;;5113103;28;20489;-61
2022/05/02 01:09:32;;;;;;;2.97;2.73;;;7.10;99.90;;;;;;5112699;28;20164;-65
2022/05/02 01:11:57;;;;;;;4.70;4.20;;;7.10;99.90;;;;;;5113300;28;20910;-65
2022/05/02 01:14:23;;;;;;;3.07;2.87;;;7.10;99.90;;;;;;5113099;28;20426;-65
2022/05/02 01:16:49;;;;;;;3.50;3.20;;;6.90;99.90;;;;;;5113415;28;20176;-64
2022/05/02 01:19:15;;;;;;;4.77;4.37;;;6.90;99.90;;;;;;5112257;28;20193;-64
2022/05/02 01:21:44;;;;;;;3.40;3.10;;;6.90;99.90;;;;;;5115191;28;20429;-61
2022/05/02 01:24:09;;;;;;;3.10;2.90;;;6.90;99.90;;;;;;5116794;28;20165;-60
2022/05/02 01:26:37;;;;;;;3.63;3.43;;;7.00;99.90;;;;;;5117064;28;20446;-61
2022/05/02 01:29:03;;;;;;;3.10;2.90;;;6.90;99.90;;;;;;5116309;28;20201;-64
2022/05/02 01:31:29;;;;;;;3.90;3.50;;;6.90;99.90;;;;;;5116522;28;20411;-63
2022/05/02 01:33:56;;;;;;;3.03;2.93;;;7.00;99.90;;;;;;5117101;28;20904;-65
2022/05/02 01:36:23;;;;;;;3.70;3.30;;;7.00;99.90;;;;;;5117080;28;20748;-60
2022/05/02 01:38:49;;;;;;;2.93;2.73;;;7.00;99.90;;;;;;5115811;28;20390;-62
2022/05/02 01:41:14;;;;;;;3.87;3.10;;;7.00;99.90;;;;;;5116586;28;20530;-62
2022/05/02 01:43:40;;;;;;;4.07;3.50;;;7.10;99.90;;;;;;5116654;28;20418;-61
2022/05/02 01:46:08;;;;;;;3.23;3.03;;;7.00;99.90;;;;;;5116775;28;20225;-65
2022/05/02 01:48:34;;;;;;;2.87;2.67;;;7.00;99.90;;;;;;5115525;28;20646;-65
2022/05/02 01:51:00;;;;;;;3.30;3.10;;;6.80;99.90;;;;;;5116734;28;20398;-60
2022/05/02 01:53:26;;;;;;;3.03;2.83;;;6.70;99.90;;;;;;5116546;28;20407;-64
2022/05/02 01:55:52;;;;;;;3.10;2.90;;;6.70;99.90;;;;;;5116559;28;20401;-60
2022/05/02 01:58:18;;;;;;;2.97;2.77;;;6.60;99.90;;;;;;5115980;28;20430;-65
2022/05/02 02:00:44;;;;;;;3.27;3.07;;;6.50;99.90;;;;;;5096920;28;20169;-61
2022/05/02 02:03:10;;;;;;;3.57;3.23;;;6.60;99.90;;;;;;5116418;28;20287;-61
2022/05/02 02:05:50;;;;;;;3.27;3.07;;;6.60;99.90;;;;;;5116235;28;20537;-64
2022/05/02 02:08:19;;;;;;;3.90;2.90;;;6.60;99.90;;;;;;5097989;28;20409;-61
2022/05/02 02:10:46;;;;;;;3.47;3.27;;;6.70;99.90;;;;;;5114980;28;20422;-65
2022/05/02 02:13:13;;;;;;;2.90;2.70;;;6.70;99.90;;;;;;5116124;28;20419;-65
2022/05/02 02:15:38;;;;;;;3.40;3.20;;;6.70;99.90;;;;;;5115722;28;20943;-61
2022/05/02 02:18:04;;;;;;;3.40;3.20;;;6.70;99.90;;;;;;5115993;28;20399;-65
2022/05/02 02:20:31;;;;;;;3.60;3.30;;;6.60;99.90;;;;;;5115190;28;20413;-65
2022/05/02 02:22:57;;;;;;;7.23;3.13;;;6.50;99.90;;;;;;5115949;28;20418;-61
2022/05/02 02:25:23;;;;;;;3.20;3.00;;;6.50;99.90;;;;;;5115560;28;20811;-64
2022/05/02 02:27:48;;;;;;;3.70;3.40;;;6.60;99.90;;;;;;5115417;28;20414;-61
2022/05/02 02:30:14;;;;;;;3.77;3.23;;;6.60;99.90;;;;;;5114722;28;20777;-65
2022/05/02 02:32:41;;;;;;;3.63;2.90;;;6.70;99.90;;;;;;5115088;27;20192;-60
2022/05/02 02:35:08;;;;;;;3.70;2.90;;;6.70;99.90;;;;;;5115560;28;20625;-64
2022/05/02 02:37:34;;;;;;;3.07;2.87;;;6.80;99.90;;;;;;5115753;28;20398;-60
2022/05/02 02:39:59;;;;;;;3.93;2.70;;;6.80;99.90;;;;;;5114728;28;20764;-63
2022/05/02 02:42:25;;;;;;;3.53;3.23;;;6.90;99.90;;;;;;5115162;28;20210;-61
2022/05/02 02:44:51;;;;;;;2.80;2.60;;;6.90;99.90;;;;;;5115787;28;20226;-60
2022/05/02 02:47:17;;;;;;;3.20;3.03;;;6.90;99.90;;;;;;5115739;28;20502;-61
2022/05/02 02:49:43;;;;;;;4.43;3.80;;;6.90;99.90;;;;;;5096554;28;20425;-61
2022/05/02 02:52:08;;;;;;;3.87;3.60;;;6.80;99.90;;;;;;5115377;28;20422;-61
2022/05/02 02:54:35;;;;;;;3.83;3.53;;;6.80;99.90;;;;;;5115057;28;20633;-60
2022/05/02 02:57:01;;;;;;;3.00;2.80;;;6.80;99.90;;;;;;5114963;28;20650;-61
2022/05/02 02:59:27;;;;;;;3.30;3.10;;;6.80;99.90;;;;;;5114472;28;20725;-63
2022/05/02 03:01:54;;;;;;;2.50;2.40;;;6.90;99.90;;;;;;5115135;28;20433;-64
2022/05/02 03:07:05;;;;;;;4.67;3.30;;;6.90;99.90;;;;;;5115221;28;20480;-61
2022/05/02 03:09:31;;;;;;;3.17;2.97;;;7.00;99.90;;;;;;5114184;28;20387;-62
2022/05/02 03:11:57;;;;;;;3.33;2.77;;;6.90;99.90;;;;;;5114920;28;20934;-61
2022/05/02 03:14:23;;;;;;;3.50;3.30;;;6.90;99.90;;;;;;5114178;28;20429;-60
2022/05/02 03:16:49;;;;;;;4.40;3.30;;;7.00;99.90;;;;;;5115083;28;20426;-65
2022/05/02 03:19:14;;;;;;;3.10;2.90;;;7.00;99.90;;;;;;5114141;28;20196;-64
2022/05/02 03:21:40;;;;;;;3.07;2.77;;;7.00;99.90;;;;;;5114804;28;20169;-64
2022/05/02 03:24:06;;;;;;;3.07;2.87;;;7.10;99.90;;;;;;5114714;28;20170;-65
2022/05/02 03:26:32;;;;;;;2.80;2.60;;;7.10;99.90;;;;;;5114506;28;20673;-61
2022/05/02 03:28:57;;;;;;;4.27;3.50;;;7.20;99.90;;;;;;5113853;28;20392;-65
2022/05/02 03:31:23;;;;;;;3.33;2.90;;;7.20;99.90;;;;;;5113974;28;20181;-61
2022/05/02 03:33:49;;;;;;;3.17;2.90;;;7.20;99.90;;;;;;5114768;28;20181;-65
2022/05/02 03:36:14;;;;;;;3.60;3.30;;;7.20;99.90;;;;;;5114603;28;20169;-62
2022/05/02 03:38:40;;;;;;;3.30;3.10;;;7.20;99.90;;;;;;5113686;28;20205;-64
2022/05/02 03:41:05;;;;;;;3.20;2.80;;;7.20;99.90;;;;;;5114729;28;20189;-65
2022/05/02 03:43:32;;;;;;;3.03;2.80;;;7.30;99.90;;;;;;5096408;28;20192;-64
2022/05/02 03:45:58;;;;;;;3.10;2.90;;;7.30;99.90;;;;;;5114079;28;20198;-62
2022/05/02 03:48:26;;;;;;;7.87;3.00;;;7.30;99.90;;;;;;5113711;28;20400;-65
2022/05/02 03:50:52;;;;;;;3.73;3.43;;;7.40;99.90;;;;;;5113677;28;20166;-61
2022/05/02 03:53:18;;;;;;;8.10;3.60;;;7.50;99.90;;;;;;5114254;28;20420;-64
2022/05/02 03:55:45;;;;;;;5.77;4.17;;;7.50;99.90;;;;;;5114372;28;20866;-64
2022/05/02 03:58:11;;;;;;;3.93;3.63;;;7.50;99.90;;;;;;5114262;28;20484;-64
2022/05/02 04:00:37;;;;;;;5.83;3.40;;;7.50;99.90;;;;;;5113295;28;20409;-61
2022/05/02 04:03:03;;;;;;;4.23;2.90;;;7.50;99.90;;;;;;5113840;28;20450;-64
2022/05/02 04:05:28;;;;;;;2.57;2.47;;;7.30;99.90;;;;;;5113690;28;20442;-60
2022/05/02 04:07:54;;;;;;;6.43;2.90;;;7.30;99.90;;;;;;5096075;28;20912;-64
2022/05/02 04:10:20;;;;;;;3.30;3.10;;;7.30;99.90;;;;;;5113134;28;20194;-64
2022/05/02 04:12:46;;;;;;;4.70;3.00;;;7.30;99.90;;;;;;5113869;28;20182;-65
2022/05/02 04:15:12;;;;;;;4.07;3.77;;;7.30;99.90;;;;;;5114104;28;20416;-61
2022/05/02 04:17:38;;;;;;;4.87;4.43;;;7.30;99.90;;;;;;5113968;28;20398;-61
2022/05/02 04:20:06;;;;;;;4.60;4.20;;;7.20;99.90;;;;;;5112600;28;20177;-61
2022/05/02 04:22:33;;;;;;;4.50;4.20;;;7.30;99.90;;;;;;5113253;28;20431;-61
2022/05/02 04:24:58;;;;;;;3.83;3.53;;;7.20;99.90;;;;;;5113698;28;20907;-65
2022/05/02 04:27:24;;;;;;;4.37;3.97;;;7.10;99.90;;;;;;5114161;28;20489;-65
2022/05/02 04:29:50;;;;;;;7.43;3.37;;;7.10;99.90;;;;;;5113040;28;20167;-61
2022/05/02 04:32:15;;;;;;;3.20;2.50;;;7.00;99.90;;;;;;5113827;28;20256;-61
2022/05/02 04:34:41;;;;;;;5.13;3.57;;;7.00;99.90;;;;;;5113948;28;20192;-64
2022/05/02 04:37:07;;;;;;;4.00;3.60;;;7.00;99.90;;;;;;5113251;28;20262;-61
2022/05/02 04:39:33;;;;;;;5.53;4.63;;;7.00;99.90;;;;;;5113043;28;20161;-63
2022/05/02 04:41:59;;;;;;;4.57;3.93;;;7.00;99.90;;;;;;5113338;28;20442;-61
2022/05/02 04:44:25;;;;;;;3.93;3.53;;;7.00;99.90;;;;;;5113862;28;20387;-61
2022/05/02 04:46:50;;;;;;;4.73;3.90;;;7.00;99.90;;;;;;5113526;28;20228;-61
2022/05/02 04:49:16;;;;;;;4.40;3.70;;;6.90;99.90;;;;;;5112805;28;20169;-61
2022/05/02 04:51:41;;;;;;;4.00;3.70;;;6.80;99.90;;;;;;5113229;28;20161;-64
2022/05/02 04:54:07;;;;;;;6.40;3.37;;;6.80;99.90;;;;;;5113581;28;20186;-63
2022/05/02 04:56:33;;;;;;;4.10;3.70;;;6.70;99.90;;;;;;5115507;28;20165;-62
2022/05/02 04:58:58;;;;;;;3.28;2.97;;;6.60;99.90;;;;;;5115669;28;20775;-66
2022/05/02 05:01:24;;;;;;;4.10;3.77;;;6.70;99.90;;;;;;5117697;28;20176;-61
2022/05/02 05:03:50;;;;;;;4.43;4.13;;;6.60;99.90;;;;;;5117723;28;20193;-60
2022/05/02 05:06:16;;;;;;;4.47;3.70;;;6.50;99.90;;;;;;5112880;28;20707;-60
2022/05/02 05:08:42;;;;;;;4.93;3.40;;;6.50;99.90;;;;;;5098186;28;20453;-65
2022/05/02 05:11:19;;;;;;;5.17;4.07;;;6.50;99.90;;;;;;5099146;28;20425;-60
2022/05/02 05:17:16;;;;;;;3.80;3.47;;;6.60;99.90;;;;;;5116605;28;20552;-61
2022/05/02 05:20:13;;;;;;;3.67;3.47;;;6.70;99.90;;;;;;5116060;28;20898;-60
2022/05/02 05:23:03;;;;;;;3.30;3.10;;;6.70;99.90;;;;;;5094242;28;20435;-60
2022/05/02 05:25:42;;;;;;;4.47;4.07;;;6.80;99.90;;;;;;5116955;28;20473;-62
2022/05/02 05:28:41;;;;;;;4.40;4.10;;;6.90;99.90;;;;;;5117228;28;20526;-66
2022/05/02 05:31:24;;;;;;;3.53;3.20;;;7.00;99.90;;;;;;5116964;28;20473;-62
2022/05/02 05:34:15;;;;;;;4.17;3.77;;;7.10;99.90;;;;;;5116243;28;20905;-62
2022/05/02 05:37:24;;;;;;;5.83;4.10;;;7.10;99.90;;;;;;5117039;28;20950;-63
2022/05/02 05:40:02;;;;;;;4.30;3.90;;;7.20;99.90;;;;;;5116099;28;20464;-66
2022/05/02 05:42:49;;;;;;;5.00;4.00;;;7.20;99.90;;;;;;5098497;28;20438;-62
2022/05/02 05:45:23;;;;;;;4.37;3.80;;;7.40;99.90;;;;;;5116857;28;20449;-67
2022/05/02 05:48:09;;;;;;;4.33;4.03;;;7.40;99.90;;;;;;5116630;28;20433;-62
2022/05/02 05:50:46;;;;;;;4.50;4.10;;;7.50;99.90;;;;;;5096494;28;20475;-67
2022/05/02 05:53:38;;;;;;;4.33;4.03;;;7.60;99.90;;;;;;5116480;28;20834;-63
2022/05/02 05:56:16;;;;;;;4.67;4.27;;;7.80;99.90;;;;;;5116704;28;20504;-64
2022/05/02 05:59:05;;;;;;;6.77;6.03;;;7.90;99.90;;;;;;5115563;28;20425;-63
2022/05/02 06:01:57;;;;;;;5.40;4.90;;;8.00;99.90;;;;;;5103706;28;20417;-64
2022/05/02 06:04:25;;;;;;;4.70;4.30;;;8.10;99.90;;;;;;5116457;28;20823;-63
2022/05/02 06:06:50;;;;;;;4.80;4.40;;;8.20;99.90;;;;;;5115392;28;20444;-64
2022/05/02 06:09:17;;;;;;;13.63;8.17;;;8.30;99.90;;;;;;5114234;28;20399;-62
2022/05/02 06:11:47;;;;;;;9.10;7.20;;;8.30;99.90;;;;;;5116020;28;20168;-63
2022/05/02 06:14:14;;;;;;;6.00;5.40;;;8.40;99.90;;;;;;5116341;28;20380;-62
2022/05/02 06:19:28;;;;;;;5.20;4.80;;;8.60;99.90;;;;;;5115521;28;20429;-67
2022/05/02 06:21:55;;;;;;;4.27;3.87;;;8.70;99.90;;;;;;5115175;28;20446;-67
2022/05/02 06:24:25;;;;;;;6.13;3.90;;;8.80;99.90;;;;;;5115342;28;20914;-67
2022/05/02 06:26:52;;;;;;;8.20;4.30;;;8.90;99.90;;;;;;5116059;28;20453;-66
2022/05/02 06:29:20;;;;;;;4.70;4.30;;;9.00;99.90;;;;;;5115074;28;20401;-67
2022/05/02 06:31:48;;;;;;;4.13;3.83;;;9.10;99.90;;;;;;5115602;28;20410;-62
2022/05/02 06:34:18;;;;;;;8.77;4.80;;;9.20;99.90;;;;;;5115807;28;20548;-66
2022/05/02 06:37:05;;;;;;;9.93;4.30;;;9.30;99.90;;;;;;5115851;28;20395;-66
2022/05/02 06:40:14;;;;;;;4.27;3.87;;;9.40;99.90;;;;;;5114216;28;20415;-67
2022/05/02 06:42:50;;;;;;;4.87;3.80;;;9.50;99.90;;;;;;5085807;28;20437;-66
2022/05/02 06:45:27;;;;;;;6.63;3.93;;;9.60;99.90;;;;;;5115710;28;20438;-66
2022/05/02 06:48:20;;;;;;;4.33;3.93;;;9.80;99.90;;;;;;5115649;28;20490;-64
2022/05/02 06:50:50;;;;;;;13.63;4.07;;;9.90;99.90;;;;;;5114612;28;20533;-66
2022/05/02 06:53:50;;;;;;;7.73;4.23;;;9.90;99.90;;;;;;5115525;28;20400;-67
2022/05/02 06:56:41;;;;;;;4.37;3.97;;;10.00;99.90;;;;;;5115633;28;20384;-66
2022/05/02 06:59:35;;;;;;;6.37;4.07;;;10.10;99.90;;;;;;5114617;28;20425;-62
2022/05/02 07:02:13;;;;;;;7.60;4.73;;;10.30;99.90;;;;;;5114627;28;20418;-63
2022/05/02 07:04:48;;;;;;;4.20;3.90;;;10.40;99.90;;;;;;5115331;28;20952;-66
2022/05/02 07:07:29;;;;;;;5.17;4.67;;;10.50;99.90;;;;;;5115135;28;20499;-62
2022/05/02 07:10:06;;;;;;;4.97;3.80;;;10.50;99.90;;;;;;5114133;28;20369;-68
2022/05/02 07:12:40;;;;;;;4.17;3.83;;;10.70;99.90;;;;;;5114151;28;20405;-66
2022/05/02 07:15:09;;;;;;;5.60;3.80;;;10.80;99.90;;;;;;5115109;28;20384;-62
2022/05/02 07:17:44;;;;;;;4.37;3.90;;;10.80;99.90;;;;;;5114573;28;20902;-62
2022/05/02 07:20:23;;;;;;;4.50;4.10;;;10.90;99.90;;;;;;5113617;28;20398;-67
2022/05/02 07:23:26;;;;;;;3.63;3.30;;;10.90;99.90;;;;;;5114924;28;20906;-63
2022/05/02 07:26:06;;;;;;;3.20;2.90;;;11.10;99.90;;;;;;5114671;28;20438;-67
2022/05/02 07:28:45;;;;;;;3.20;2.90;;;11.10;99.90;;;;;;5113498;28;20497;-68
2022/05/02 07:31:23;;;;;;;3.27;2.97;;;11.10;99.90;;;;;;5114760;28;20729;-67
2022/05/02 07:33:53;;;;;;;4.77;3.00;;;11.10;99.90;;;;;;5114652;28;20494;-63
2022/05/02 07:36:23;;;;;;;5.10;3.23;;;11.30;99.90;;;;;;5114337;28;20409;-63
2022/05/02 07:39:03;;;;;;;5.00;4.20;;;11.50;99.90;;;;;;5113473;28;20543;-63
2022/05/02 07:41:28;;;;;;;3.33;3.03;;;11.50;99.90;;;;;;5114541;28;20398;-64
2022/05/02 07:44:08;;;;;;;2.83;2.63;;;11.50;99.90;;;;;;5114201;28;20835;-67
2022/05/02 07:46:45;;;;;;;3.37;3.10;;;11.60;99.90;;;;;;5114285;28;20185;-66
2022/05/02 07:49:25;;;;;;;3.17;2.90;;;11.60;99.90;;;;;;5113592;28;20399;-66
2022/05/02 07:51:52;;;;;;;4.13;3.80;;;11.70;99.90;;;;;;5114290;28;20415;-67
2022/05/02 07:54:25;;;;;;;12.30;4.77;;;11.80;99.90;;;;;;5113384;28;20401;-68
2022/05/02 07:56:57;;;;;;;4.57;4.20;;;12.00;99.90;;;;;;5113158;28;20389;-63
2022/05/02 07:59:31;;;;;;;5.63;3.70;;;12.10;99.90;;;;;;5113291;28;20838;-63
2022/05/02 08:01:57;;;;;;;4.20;3.90;;;12.20;99.90;;;;;;5114146;28;20446;-63
2022/05/02 08:04:23;;;;;;;4.17;3.80;;;12.30;99.90;;;;;;5113992;28;20785;-63
2022/05/02 08:07:03;;;;;;;5.23;4.10;;;12.30;99.90;;;;;;5114133;28;20916;-67
2022/05/02 08:09:40;;;;;;;4.00;3.80;;;12.50;99.90;;;;;;5112446;28;20409;-64
2022/05/02 08:12:28;;;;;;;8.37;4.53;;;12.70;99.90;;;;;;5113606;28;20420;-62
2022/05/02 08:14:57;;;;;;;4.60;4.30;;;12.90;99.90;;;;;;5113939;28;20369;-62
2022/05/02 08:17:31;;;;;;;4.90;4.60;;;13.00;99.90;;;;;;5114282;28;20453;-63
2022/05/02 08:20:36;;;;;;;3.90;3.60;;;13.10;99.90;;;;;;5112978;28;20370;-63
2022/05/02 08:29:30;;;;;;;8.33;4.40;;;12.70;99.90;;;;;;5112496;28;20734;-67
2022/05/02 08:32:10;;;;;;;7.70;3.87;;;12.60;99.90;;;;;;5112757;28;20434;-63
2022/05/02 08:34:39;;;;;;;3.77;3.47;;;12.80;99.90;;;;;;5113652;28;20386;-67
2022/05/02 08:37:13;;;;;;;4.10;3.70;;;12.90;93.10;;;;;;5113683;28;20369;-63
2022/05/02 08:40:00;;;;;;;4.07;3.67;;;13.20;93.20;;;;;;5112666;28;20385;-63
2022/05/02 08:42:26;;;;;;;3.90;2.87;;;13.50;93.30;;;;;;5113716;28;20887;-67
2022/05/02 08:45:03;;;;;;;3.57;3.27;;;13.50;93.30;;;;;;5113509;28;20455;-66
2022/05/02 08:47:48;;;;;;;7.50;3.80;;;13.80;93.40;;;;;;5113728;28;20464;-66
2022/05/02 08:50:29;;;;;;;7.43;3.50;;;14.20;80.40;;;;;;5112610;28;20381;-62
2022/05/02 08:53:28;;;;;;;8.63;3.93;;;14.20;71.30;;;;;;5113384;28;20397;-63
2022/05/02 08:56:09;;;;;;;3.77;3.40;;;14.20;68.40;;;;;;5095175;28;20414;-67
2022/05/02 08:59:28;;;;;;;5.73;3.53;;;14.40;53.10;;;;;;5112446;28;20513;-63
2022/05/02 09:02:32;;;;;;;9.13;3.93;;;14.60;54.30;;;;;;5079025;28;20496;-63
2022/05/02 09:05:17;;;;;;;4.80;3.90;;;14.40;43.10;;;;;;5113408;28;20403;-63
2022/05/02 09:08:09;;;;;;;4.10;3.80;;;14.50;29.20;;;;;;5113350;28;20406;-64
2022/05/02 09:11:31;;;;;;;4.73;3.40;;;14.80;28.70;;;;;;5107777;28;20509;-67
2022/05/02 09:14:19;;;;;;;5.33;3.43;;;14.60;18.00;;;;;;5113277;28;20760;-67
2022/05/02 09:17:09;;;;;;;4.40;4.00;;;14.20;12.00;;;;;;5095439;28;20381;-67
2022/05/02 09:19:34;;;;;;;3.63;3.30;;;14.10;9.20;;;;;;5112862;28;20406;-63
2022/05/02 09:22:57;;;;;;;9.23;4.00;;;14.20;4.90;;;;;;5113355;28;20426;-63
2022/05/02 09:25:36;;;;;;;3.90;3.57;;;14.70;5.10;;;;;;5049979;28;20202;-67
2022/05/02 09:28:19;;;;;;;6.00;4.33;;;15.20;4.40;;;;;;5034057;28;21048;-67
2022/05/02 09:31:10;;;;;;;4.40;3.60;;;14.90;1.00;;;;;;5092272;28;20410;-67
2022/05/02 09:34:13;;;;;;;4.83;3.13;;;14.80;1.00;;;;;;5095185;28;20455;-63
2022/05/02 09:37:01;;;;;;;4.00;3.60;;;14.30;1.00;;;;;;5113390;28;20485;-63
2022/05/02 09:39:48;;;;;;;3.90;3.50;;;14.20;1.00;;;;;;5112481;28;20381;-67
2022/05/02 09:42:45;;;;;;;6.23;3.30;;;14.40;1.00;;;;;;5114393;28;20418;-69
2022/05/02 09:51:26;;;;;;;5.50;3.60;;;17.10;1.00;;;;;;5116783;28;20398;-68
2022/05/02 09:57:18;;;;;;;3.87;3.57;;;18.30;1.00;;;;;;5116456;28;20434;-64
2022/05/02 10:02:46;;;;;;;5.43;3.90;;;17.40;1.00;;;;;;5116591;28;20840;-63
2022/05/02 10:05:38;;;;;;;3.20;2.90;;;17.60;1.00;;;;;;5116454;28;20403;-64
2022/05/02 10:08:13;;;;;;;3.17;2.13;;;18.20;1.00;;;;;;5116382;28;20436;-68
2022/05/02 10:10:48;;;;;;;3.07;2.87;;;19.10;1.00;;;;;;5115702;28;20812;-68
2022/05/02 10:13:32;;;;;;;4.03;3.73;;;19.70;1.00;;;;;;5116179;28;20425;-69
2022/05/02 10:16:18;;;;;;;2.53;2.33;;;20.00;1.00;;;;;;5116172;28;20403;-64
2022/05/02 10:18:51;;;;;;;3.00;2.80;;;20.00;1.00;;;;;;5115248;28;20405;-68
2022/05/02 10:21:42;;;;;;;3.40;2.60;;;20.10;1.00;;;;;;5116083;28;20403;-64
2022/05/02 10:24:14;;;;;;;3.03;2.83;;;20.40;1.00;;;;;;5116095;28;20405;-69
2022/05/02 10:26:50;;;;;;;2.93;2.67;;;20.70;1.00;;;;;;5116045;28;20439;-64
2022/05/02 10:29:53;;;;;;;3.17;2.97;;;21.10;1.00;;;;;;5115254;28;20390;-64
2022/05/02 10:32:22;;;;;;;3.40;3.07;;;21.50;1.00;;;;;;5115817;28;20497;-70
2022/05/02 10:34:52;;;;;;;3.43;2.93;;;21.50;1.00;;;;;;5115483;28;20418;-69
2022/05/02 10:37:23;;;;;;;5.87;3.20;;;21.40;1.00;;;;;;5115765;28;20490;-68
2022/05/02 10:39:58;;;;;;;3.83;2.93;;;21.60;1.00;;;;;;5114983;28;20482;-64
2022/05/02 10:42:27;;;;;;;3.10;2.80;;;21.70;1.00;;;;;;5115598;28;20418;-69
2022/05/02 10:44:57;;;;;;;3.47;3.17;;;21.50;1.00;;;;;;5115870;28;20431;-64
2022/05/02 10:47:27;;;;;;;5.10;3.80;;;21.40;1.00;;;;;;5115831;28;20437;-69
2022/05/02 10:50:03;;;;;;;8.20;3.40;;;21.80;1.00;;;;;;5114783;28;20395;-68
2022/05/02 10:52:55;;;;;;;3.27;2.67;;;22.10;1.00;;;;;;5115046;28;20411;-64
2022/05/02 10:55:32;;;;;;;3.73;3.43;;;22.10;1.00;;;;;;5090839;28;20418;-69
2022/05/02 10:58:04;;;;;;;3.53;3.23;;;22.40;1.00;;;;;;5115123;28;20426;-64
2022/05/02 11:00:31;;;;;;;2.80;2.60;;;22.70;1.00;;;;;;5114720;28;20918;-69
2022/05/02 11:03:18;;;;;;;2.60;2.40;;;22.60;1.00;;;;;;5115274;28;20422;-64
2022/05/02 11:05:49;;;;;;;3.23;2.73;;;21.50;1.00;;;;;;5115168;28;20449;-68
2022/05/02 11:08:42;;;;;;;4.03;2.80;;;20.10;1.00;;;;;;5114758;28;20406;-69
2022/05/02 11:11:11;;;;;;;3.30;3.03;;;19.80;1.00;;;;;;5115231;28;20464;-64
2022/05/02 11:13:53;;;;;;;2.93;2.73;;;20.70;1.00;;;;;;5115150;28;20450;-65
2022/05/02 11:16:36;;;;;;;2.90;2.70;;;20.40;1.00;;;;;;5097052;28;20410;-69
2022/05/02 11:22:25;;;;;;;6.30;2.77;;;20.70;1.00;;;;;;5114749;28;20423;-64
2022/05/02 11:25:22;;;;;;;3.27;2.97;;;21.90;1.00;;;;;;5114503;28;20406;-68
2022/05/02 11:28:16;;;;;;;4.20;3.20;;;22.20;1.00;;;;;;5096646;28;20950;-68
2022/05/02 11:30:47;;;;;;;4.37;3.27;;;21.90;1.00;;;;;;5114055;28;20395;-69
2022/05/02 11:33:54;;;;;;;5.60;3.77;;;21.10;1.00;;;;;;5114543;28;20942;-69
2022/05/02 11:36:25;;;;;;;3.40;3.10;;;20.10;1.00;;;;;;5080115;28;20445;-64
2022/05/02 11:39:01;;;;;;;3.33;3.03;;;19.60;1.00;;;;;;5113945;28;20409;-69
2022/05/02 11:41:30;;;;;;;3.47;3.17;;;19.30;1.00;;;;;;5114407;28;20449;-66
2022/05/02 11:44:13;;;;;;;3.77;3.47;;;20.20;1.00;;;;;;5114086;28;20399;-69
2022/05/02 11:47:14;;;;;;;5.50;3.27;;;21.20;1.00;;;;;;5114588;28;20446;-66
2022/05/02 11:49:53;;;;;;;3.57;3.33;;;21.30;1.00;;;;;;5113747;28;20451;-68
2022/05/02 11:52:38;;;;;;;3.00;2.80;;;20.60;1.00;;;;;;5114405;28;20821;-74
2022/05/02 11:55:06;;;;;;;3.10;2.90;;;19.80;1.00;;;;;;5114067;28;20407;-69
2022/05/02 11:57:50;;;;;;;10.13;3.40;;;19.10;1.00;;;;;;5095782;28;20513;-73
2022/05/02 12:04:41;;;;;;;3.20;2.90;;;20.70;1.00;;;;;;5092625;28;20407;-72
2022/05/02 12:07:13;;;;;;;4.33;3.10;;;20.70;1.00;;;;;;5073178;28;20459;-65
2022/05/02 12:09:44;;;;;;;4.73;3.27;;;20.10;1.00;;;;;;5075162;28;20427;-72
2022/05/02 12:12:10;;;;;;;5.10;4.50;;;20.00;1.00;;;;;;5093320;28;20506;-68
2022/05/02 12:14:36;;;;;;;3.30;3.10;;;19.60;1.00;;;;;;5093490;28;20404;-71
2022/05/02 12:17:10;;;;;;;3.57;3.27;;;19.60;1.00;;;;;;5093261;28;20461;-67
2022/05/02 12:19:39;;;;;;;9.77;3.30;;;20.10;1.00;;;;;;5074668;28;20402;-71
2022/05/02 12:22:15;;;;;;;5.83;3.50;;;20.20;1.00;;;;;;5093638;28;20412;-66
2022/05/02 12:24:44;;;;;;;3.07;2.87;;;20.30;1.00;;;;;;5093423;28;20396;-66
2022/05/02 12:27:11;;;;;;;3.50;3.00;;;21.20;1.00;;;;;;5093331;28;20455;-66
2022/05/02 12:29:41;;;;;;;3.67;3.30;;;21.30;1.00;;;;;;5074692;28;20451;-71
2022/05/02 12:32:08;;;;;;;3.23;2.93;;;21.60;1.00;;;;;;5093292;28;20427;-71
2022/05/02 12:34:36;;;;;;;3.23;2.93;;;21.10;1.00;;;;;;5093275;28;20899;-71
2022/05/02 12:37:07;;;;;;;3.47;2.50;;;20.30;1.00;;;;;;5113061;28;20407;-66
2022/05/02 12:39:46;;;;;;;3.03;2.83;;;19.70;1.00;;;;;;5094839;28;20453;-65
2022/05/02 12:42:18;;;;;;;5.37;3.50;;;20.10;1.00;;;;;;5113766;28;20445;-70
2022/05/02 12:45:07;;;;;;;2.90;2.63;;;20.90;1.00;;;;;;5113546;28;20922;-66
2022/05/02 12:47:53;;;;;;;3.13;2.83;;;21.30;1.00;;;;;;5113589;28;20402;-71
2022/05/02 12:50:21;;;;;;;6.70;3.60;;;20.90;1.00;;;;;;5113230;28;20882;-72
2022/05/02 12:53:05;;;;;;;3.90;3.60;;;20.70;1.00;;;;;;5113320;28;20522;-71
2022/05/02 12:55:36;;;;;;;3.90;3.03;;;20.40;1.00;;;;;;5113139;28;20399;-66
2022/05/02 13:00:51;;;;;;;2.70;2.50;;;20.00;1.00;;;;;;5113323;28;20401;-71
2022/05/02 13:03:34;;;;;;;;;;;;;;;;;;;;;
2022/05/02 13:06:10;;;;;;;2.53;2.33;;;19.30;1.00;;;;;;5113404;28;20454;-72
2022/05/02 13:08:41;;;;;;;2.87;2.67;;;19.30;1.00;;;;;;5112811;28;20390;-67
2022/05/02 13:11:21;;;;;;;2.40;2.30;;;19.70;1.00;;;;;;5113030;28;20395;-72
2022/05/02 13:13:50;;;;;;;2.70;2.50;;;20.20;1.00;;;;;;5095237;28;20522;-72
2022/05/02 13:16:30;;;;;;;3.30;2.30;;;20.50;1.00;;;;;;5095477;28;20497;-72
2022/05/02 13:19:00;;;;;;;3.43;2.40;;;20.30;1.00;;;;;;5098321;28;20847;-73
2022/05/02 13:21:27;;;;;;;2.30;2.10;;;20.20;1.00;;;;;;5098884;28;20418;-72
2022/05/02 13:23:58;;;;;;;2.77;2.57;;;20.80;1.00;;;;;;5117319;28;20467;-72
2022/05/02 13:26:40;;;;;;;2.53;2.00;;;21.30;1.00;;;;;;5117104;28;20446;-66
2022/05/02 13:29:13;;;;;;;1.80;1.60;;;21.70;1.00;;;;;;5116375;28;20409;-66
2022/05/02 13:32:21;;;;;;;3.93;1.83;;;22.90;1.00;;;;;;5116673;28;20427;-66
2022/05/02 13:34:51;;;;;;;3.43;1.80;;;23.90;1.00;;;;;;5117042;28;20547;-73
2022/05/02 13:37:29;;;;;;;8.57;2.13;;;25.30;1.00;;;;;;5116911;28;20402;-66
2022/05/02 13:40:00;;;;;;;2.17;1.87;;;26.10;1.00;;;;;;5116164;28;20395;-70
2022/05/02 13:42:39;;;;;;;2.00;1.90;;;26.70;1.00;;;;;;5116895;28;20506;-69
2022/05/02 13:45:10;;;;;;;2.73;2.20;;;27.30;1.00;;;;;;5116657;28;20390;-68
2022/05/02 13:48:01;;;;;;;5.63;1.10;;;27.90;1.00;;;;;;5116685;28;20963;-67
2022/05/02 13:50:29;;;;;;;2.13;1.53;;;27.50;1.00;;;;;;5115951;28;20395;-75
2022/05/02 13:53:12;;;;;;;6.30;1.43;;;27.40;1.00;;;;;;5116578;28;20813;-70
2022/05/02 13:55:52;;;;;;;2.67;2.23;;;27.60;1.00;;;;;;5116693;28;20383;-71
2022/05/02 13:58:56;;;;;;;2.13;1.40;;;28.20;1.00;;;;;;5098570;28;20422;-75
2022/05/02 14:01:42;;;;;;;2.23;1.30;;;28.60;1.00;;;;;;5114776;28;20455;-75
2022/05/02 14:04:17;;;;;;;2.90;1.80;;;28.30;1.00;;;;;;5116406;28;20402;-71
2022/05/02 14:09:32;;;;;;;2.67;1.60;;;27.30;1.00;;;;;;5115614;28;20399;-75
2022/05/02 14:11:59;;;;;;;2.77;1.90;;;26.40;1.00;;;;;;5116265;28;20425;-73
2022/05/02 14:14:24;;;;;;;1.93;1.57;;;26.20;1.00;;;;;;5116328;28;20383;-74